sensor_id;sensor_type;location;lat;lon;timestamp;P1;durP1;ratioP1;P2;durP2;ratioP2
71937;SDS011;59810;48.800;9.086;2023-02-23T00:02:01;20.53;;;10.43;;
71937;SDS011;59810;48.800;9.086;2023-02-23T00:04:28;25.33;;;11.02;;
71937;SDS011;59810;48.800;9.086;2023-02-23T00:06:53;21.67;;;9.67;;
71937;SDS011;59810;48.800;9.086;2023-02-23T00:09:18;22.47;;;10.93;;
71937;SDS011;59810;48.800;9.086;2023-02-23T00:11:54;20.83;;;10.48;;
71937;SDS011;59810;48.800;9.086;2023-02-23T00:14:23;22.52;;;10.88;;
71937;SDS011;59810;48.800;9.086;2023-02-23T00:16:55;20.07;;;10.57;;
71937;SDS011;59810;48.800;9.086;2023-02-23T00:19:21;23.73;;;10.73;;
71937;SDS011;59810;48.800;9.086;2023-02-23T00:21:48;20.38;;;10.40;;
71937;SDS011;59810;48.800;9.086;2023-02-23T00:24:16;24.55;;;11.68;;
71937;SDS011;59810;48.800;9.086;2023-02-23T00:26:46;23.70;;;11.00;;
71937;SDS011;59810;48.800;9.086;2023-02-23T00:29:22;21.70;;;10.63;;
71937;SDS011;59810;48.800;9.086;2023-02-23T00:31:51;27.90;;;11.90;;
71937;SDS011;59810;48.800;9.086;2023-02-23T00:34:17;22.95;;;11.52;;
71937;SDS011;59810;48.800;9.086;2023-02-23T00:36:45;20.73;;;10.48;;
71937;SDS011;59810;48.800;9.086;2023-02-23T00:39:10;21.93;;;11.70;;
71937;SDS011;59810;48.800;9.086;2023-02-23T00:41:45;24.17;;;11.75;;
71937;SDS011;59810;48.800;9.086;2023-02-23T00:44:11;22.75;;;11.43;;
71937;SDS011;59810;48.800;9.086;2023-02-23T00:46:39;24.70;;;12.93;;
71937;SDS011;59810;48.800;9.086;2023-02-23T00:49:05;27.15;;;12.27;;
71937;SDS011;59810;48.800;9.086;2023-02-23T00:51:31;25.40;;;13.00;;
71937;SDS011;59810;48.800;9.086;2023-02-23T00:53:57;24.17;;;11.90;;
71937;SDS011;59810;48.800;9.086;2023-02-23T00:56:24;27.38;;;13.13;;
71937;SDS011;59810;48.800;9.086;2023-02-23T00:58:51;27.55;;;13.38;;
71937;SDS011;59810;48.800;9.086;2023-02-23T01:01:16;28.87;;;13.40;;
71937;SDS011;59810;48.800;9.086;2023-02-23T01:03:42;27.67;;;13.98;;
71937;SDS011;59810;48.800;9.086;2023-02-23T01:06:10;30.00;;;14.37;;
71937;SDS011;59810;48.800;9.086;2023-02-23T01:08:42;32.33;;;15.60;;
71937;SDS011;59810;48.800;9.086;2023-02-23T01:11:10;29.05;;;13.90;;
71937;SDS011;59810;48.800;9.086;2023-02-23T01:13:41;29.35;;;14.38;;
71937;SDS011;59810;48.800;9.086;2023-02-23T01:16:12;26.05;;;12.68;;
71937;SDS011;59810;48.800;9.086;2023-02-23T01:18:42;32.43;;;15.73;;
71937;SDS011;59810;48.800;9.086;2023-02-23T01:21:22;29.08;;;14.52;;
71937;SDS011;59810;48.800;9.086;2023-02-23T01:23:55;33.95;;;16.23;;
71937;SDS011;59810;48.800;9.086;2023-02-23T01:26:31;33.67;;;14.38;;
71937;SDS011;59810;48.800;9.086;2023-02-23T01:29:03;34.42;;;16.38;;
71937;SDS011;59810;48.800;9.086;2023-02-23T01:31:32;33.60;;;15.73;;
71937;SDS011;59810;48.800;9.086;2023-02-23T01:34:01;37.42;;;16.90;;
71937;SDS011;59810;48.800;9.086;2023-02-23T01:36:27;38.50;;;17.48;;
71937;SDS011;59810;48.800;9.086;2023-02-23T01:38:54;33.30;;;15.57;;
71937;SDS011;59810;48.800;9.086;2023-02-23T01:41:24;34.00;;;16.48;;
71937;SDS011;59810;48.800;9.086;2023-02-23T01:46:27;35.15;;;16.52;;
71937;SDS011;59810;48.800;9.086;2023-02-23T01:48:55;40.05;;;18.13;;
71937;SDS011;59810;48.800;9.086;2023-02-23T01:51:22;33.30;;;15.93;;
71937;SDS011;59810;48.800;9.086;2023-02-23T01:53:56;31.95;;;15.40;;
71937;SDS011;59810;48.800;9.086;2023-02-23T01:56:30;31.90;;;15.77;;
71937;SDS011;59810;48.800;9.086;2023-02-23T01:59:02;32.30;;;16.95;;
71937;SDS011;59810;48.800;9.086;2023-02-23T02:01:33;33.30;;;17.05;;
71937;SDS011;59810;48.800;9.086;2023-02-23T02:04:00;33.63;;;15.80;;
71937;SDS011;59810;48.800;9.086;2023-02-23T02:06:29;23.00;;;12.00;;
71937;SDS011;59810;48.800;9.086;2023-02-23T02:08:56;25.67;;;12.07;;
71937;SDS011;59810;48.800;9.086;2023-02-23T02:11:30;24.73;;;11.45;;
71937;SDS011;59810;48.800;9.086;2023-02-23T02:14:09;25.65;;;12.98;;
71937;SDS011;59810;48.800;9.086;2023-02-23T02:44:45;26.37;;;12.57;;
71937;SDS011;59810;48.800;9.086;2023-02-23T02:47:20;26.25;;;13.15;;
71937;SDS011;59810;48.800;9.086;2023-02-23T02:49:56;26.52;;;13.48;;
71937;SDS011;59810;48.800;9.086;2023-02-23T02:52:36;26.75;;;12.80;;
71937;SDS011;59810;48.800;9.086;2023-02-23T02:55:12;24.52;;;13.02;;
71937;SDS011;59810;48.800;9.086;2023-02-23T02:57:40;28.10;;;13.87;;
71937;SDS011;59810;48.800;9.086;2023-02-23T03:00:21;26.05;;;12.20;;
71937;SDS011;59810;48.800;9.086;2023-02-23T03:03:53;27.38;;;13.48;;
71937;SDS011;59810;48.800;9.086;2023-02-23T03:06:21;27.05;;;13.73;;
71937;SDS011;59810;48.800;9.086;2023-02-23T03:12:09;26.10;;;13.07;;
71937;SDS011;59810;48.800;9.086;2023-02-23T03:15:15;27.77;;;13.60;;
71937;SDS011;59810;48.800;9.086;2023-02-23T03:21:14;30.55;;;13.68;;
71937;SDS011;59810;48.800;9.086;2023-02-23T03:26:52;29.37;;;13.83;;
71937;SDS011;59810;48.800;9.086;2023-02-23T03:29:57;26.27;;;11.85;;
71937;SDS011;59810;48.800;9.086;2023-02-23T03:32:51;29.88;;;13.82;;
71937;SDS011;59810;48.800;9.086;2023-02-23T03:35:49;23.35;;;12.57;;
71937;SDS011;59810;48.800;9.086;2023-02-23T03:38:42;28.08;;;13.25;;
71937;SDS011;59810;48.800;9.086;2023-02-23T03:41:32;24.80;;;12.23;;
71937;SDS011;59810;48.800;9.086;2023-02-23T03:44:23;26.98;;;13.35;;
71937;SDS011;59810;48.800;9.086;2023-02-23T03:47:13;23.52;;;12.63;;
71937;SDS011;59810;48.800;9.086;2023-02-23T03:50:00;26.05;;;13.02;;
71937;SDS011;59810;48.800;9.086;2023-02-23T03:52:49;28.77;;;13.15;;
71937;SDS011;59810;48.800;9.086;2023-02-23T03:55:38;23.80;;;13.50;;
71937;SDS011;59810;48.800;9.086;2023-02-23T03:58:36;28.83;;;13.15;;
71937;SDS011;59810;48.800;9.086;2023-02-23T04:01:24;26.40;;;13.73;;
71937;SDS011;59810;48.800;9.086;2023-02-23T04:04:10;28.38;;;13.77;;
71937;SDS011;59810;48.800;9.086;2023-02-23T04:06:57;31.55;;;14.40;;
71937;SDS011;59810;48.800;9.086;2023-02-23T04:09:44;27.23;;;14.10;;
71937;SDS011;59810;48.800;9.086;2023-02-23T04:18:34;30.17;;;15.10;;
71937;SDS011;59810;48.800;9.086;2023-02-23T04:21:01;30.67;;;14.52;;
71937;SDS011;59810;48.800;9.086;2023-02-23T04:23:27;30.20;;;14.37;;
71937;SDS011;59810;48.800;9.086;2023-02-23T04:25:53;31.23;;;15.57;;
71937;SDS011;59810;48.800;9.086;2023-02-23T04:28:20;28.90;;;14.68;;
71937;SDS011;59810;48.800;9.086;2023-02-23T04:30:46;31.13;;;14.70;;
71937;SDS011;59810;48.800;9.086;2023-02-23T04:33:19;30.70;;;14.38;;
71937;SDS011;59810;48.800;9.086;2023-02-23T04:35:49;33.27;;;15.53;;
71937;SDS011;59810;48.800;9.086;2023-02-23T04:38:16;33.53;;;14.93;;
71937;SDS011;59810;48.800;9.086;2023-02-23T04:40:42;31.20;;;16.17;;
71937;SDS011;59810;48.800;9.086;2023-02-23T04:43:08;32.88;;;15.57;;
71937;SDS011;59810;48.800;9.086;2023-02-23T04:45:38;31.13;;;14.97;;
71937;SDS011;59810;48.800;9.086;2023-02-23T04:48:04;28.95;;;14.10;;
71937;SDS011;59810;48.800;9.086;2023-02-23T04:50:30;25.93;;;13.33;;
71937;SDS011;59810;48.800;9.086;2023-02-23T04:53:00;26.42;;;13.60;;
71937;SDS011;59810;48.800;9.086;2023-02-23T04:55:25;30.70;;;13.90;;
71937;SDS011;59810;48.800;9.086;2023-02-23T04:57:52;29.53;;;14.33;;
71937;SDS011;59810;48.800;9.086;2023-02-23T05:00:23;28.00;;;13.27;;
71937;SDS011;59810;48.800;9.086;2023-02-23T05:02:51;28.88;;;13.75;;
71937;SDS011;59810;48.800;9.086;2023-02-23T05:05:21;30.38;;;14.85;;
71937;SDS011;59810;48.800;9.086;2023-02-23T05:07:49;26.37;;;13.07;;
71937;SDS011;59810;48.800;9.086;2023-02-23T05:10:15;29.70;;;13.82;;
71937;SDS011;59810;48.800;9.086;2023-02-23T05:12:40;27.50;;;13.53;;
71937;SDS011;59810;48.800;9.086;2023-02-23T05:15:06;31.57;;;14.20;;
71937;SDS011;59810;48.800;9.086;2023-02-23T05:17:31;27.63;;;13.37;;
71937;SDS011;59810;48.800;9.086;2023-02-23T05:19:57;22.85;;;11.55;;
71937;SDS011;59810;48.800;9.086;2023-02-23T05:22:22;24.90;;;11.97;;
71937;SDS011;59810;48.800;9.086;2023-02-23T05:24:47;29.90;;;13.93;;
71937;SDS011;59810;48.800;9.086;2023-02-23T05:27:13;27.83;;;13.23;;
71937;SDS011;59810;48.800;9.086;2023-02-23T05:29:39;24.65;;;12.45;;
71937;SDS011;59810;48.800;9.086;2023-02-23T05:32:05;28.15;;;13.32;;
71937;SDS011;59810;48.800;9.086;2023-02-23T05:34:31;29.00;;;12.97;;
71937;SDS011;59810;48.800;9.086;2023-02-23T05:36:56;24.70;;;12.47;;
71937;SDS011;59810;48.800;9.086;2023-02-23T05:39:21;27.67;;;12.17;;
71937;SDS011;59810;48.800;9.086;2023-02-23T05:41:47;26.00;;;12.02;;
71937;SDS011;59810;48.800;9.086;2023-02-23T05:44:12;23.80;;;11.53;;
71937;SDS011;59810;48.800;9.086;2023-02-23T05:46:41;23.50;;;11.20;;
71937;SDS011;59810;48.800;9.086;2023-02-23T05:49:06;24.27;;;12.17;;
71937;SDS011;59810;48.800;9.086;2023-02-23T05:51:32;23.63;;;12.20;;
71937;SDS011;59810;48.800;9.086;2023-02-23T05:53:59;24.63;;;11.90;;
71937;SDS011;59810;48.800;9.086;2023-02-23T05:56:25;22.23;;;11.57;;
71937;SDS011;59810;48.800;9.086;2023-02-23T05:58:51;24.83;;;11.82;;
71937;SDS011;59810;48.800;9.086;2023-02-23T06:01:19;24.63;;;12.13;;
71937;SDS011;59810;48.800;9.086;2023-02-23T06:03:45;23.37;;;11.10;;
71937;SDS011;59810;48.800;9.086;2023-02-23T06:06:11;24.52;;;11.85;;
71937;SDS011;59810;48.800;9.086;2023-02-23T06:08:36;21.53;;;12.07;;
71937;SDS011;59810;48.800;9.086;2023-02-23T06:11:02;25.60;;;11.73;;
71937;SDS011;59810;48.800;9.086;2023-02-23T06:13:28;24.63;;;11.80;;
71937;SDS011;59810;48.800;9.086;2023-02-23T06:15:54;28.20;;;12.45;;
71937;SDS011;59810;48.800;9.086;2023-02-23T06:18:19;24.80;;;11.63;;
71937;SDS011;59810;48.800;9.086;2023-02-23T06:20:46;27.10;;;11.68;;
71937;SDS011;59810;48.800;9.086;2023-02-23T06:23:11;25.40;;;12.03;;
71937;SDS011;59810;48.800;9.086;2023-02-23T06:25:40;20.45;;;10.35;;
71937;SDS011;59810;48.800;9.086;2023-02-23T06:28:07;24.13;;;12.38;;
71937;SDS011;59810;48.800;9.086;2023-02-23T06:30:34;25.65;;;10.93;;
71937;SDS011;59810;48.800;9.086;2023-02-23T06:33:03;33.50;;;11.85;;
71937;SDS011;59810;48.800;9.086;2023-02-23T06:35:29;23.13;;;10.57;;
71937;SDS011;59810;48.800;9.086;2023-02-23T06:37:56;23.77;;;10.63;;
71937;SDS011;59810;48.800;9.086;2023-02-23T06:40:21;24.03;;;10.30;;
71937;SDS011;59810;48.800;9.086;2023-02-23T06:42:46;20.10;;;9.18;;
71937;SDS011;59810;48.800;9.086;2023-02-23T06:45:12;19.47;;;8.20;;
71937;SDS011;59810;48.800;9.086;2023-02-23T06:47:38;22.80;;;8.60;;
71937;SDS011;59810;48.800;9.086;2023-02-23T06:50:04;24.17;;;9.07;;
71937;SDS011;59810;48.800;9.086;2023-02-23T06:52:31;26.95;;;8.10;;
71937;SDS011;59810;48.800;9.086;2023-02-23T06:54:56;21.77;;;8.57;;
71937;SDS011;59810;48.800;9.086;2023-02-23T06:57:21;20.33;;;7.77;;
71937;SDS011;59810;48.800;9.086;2023-02-23T06:59:47;19.43;;;7.50;;
71937;SDS011;59810;48.800;9.086;2023-02-23T07:02:12;22.73;;;8.00;;
71937;SDS011;59810;48.800;9.086;2023-02-23T07:04:40;31.08;;;7.72;;
71937;SDS011;59810;48.800;9.086;2023-02-23T07:07:05;19.80;;;7.63;;
71937;SDS011;59810;48.800;9.086;2023-02-23T07:09:31;23.07;;;7.87;;
71937;SDS011;59810;48.800;9.086;2023-02-23T07:11:56;18.08;;;7.43;;
71937;SDS011;59810;48.800;9.086;2023-02-23T07:14:24;18.40;;;7.63;;
71937;SDS011;59810;48.800;9.086;2023-02-23T07:16:49;16.67;;;7.15;;
71937;SDS011;59810;48.800;9.086;2023-02-23T07:19:14;18.07;;;7.80;;
71937;SDS011;59810;48.800;9.086;2023-02-23T07:21:42;16.97;;;7.30;;
71937;SDS011;59810;48.800;9.086;2023-02-23T07:24:08;19.10;;;8.82;;
71937;SDS011;59810;48.800;9.086;2023-02-23T07:26:35;19.30;;;8.93;;
71937;SDS011;59810;48.800;9.086;2023-02-23T07:29:01;20.13;;;8.40;;
71937;SDS011;59810;48.800;9.086;2023-02-23T07:31:27;20.60;;;8.23;;
71937;SDS011;59810;48.800;9.086;2023-02-23T07:33:54;22.25;;;8.52;;
71937;SDS011;59810;48.800;9.086;2023-02-23T07:36:20;15.73;;;7.13;;
71937;SDS011;59810;48.800;9.086;2023-02-23T07:38:46;15.05;;;7.18;;
71937;SDS011;59810;48.800;9.086;2023-02-23T07:41:12;14.43;;;6.77;;
71937;SDS011;59810;48.800;9.086;2023-02-23T07:43:37;15.38;;;7.13;;
71937;SDS011;59810;48.800;9.086;2023-02-23T07:46:02;16.67;;;7.50;;
71937;SDS011;59810;48.800;9.086;2023-02-23T07:48:30;18.33;;;7.30;;
71937;SDS011;59810;48.800;9.086;2023-02-23T07:50:56;16.80;;;7.70;;
71937;SDS011;59810;48.800;9.086;2023-02-23T07:53:21;17.53;;;6.97;;
71937;SDS011;59810;48.800;9.086;2023-02-23T07:55:54;16.17;;;7.18;;
71937;SDS011;59810;48.800;9.086;2023-02-23T07:58:20;16.25;;;7.30;;
71937;SDS011;59810;48.800;9.086;2023-02-23T08:00:45;21.97;;;8.27;;
71937;SDS011;59810;48.800;9.086;2023-02-23T08:03:13;18.67;;;7.95;;
71937;SDS011;59810;48.800;9.086;2023-02-23T08:05:38;18.03;;;7.60;;
71937;SDS011;59810;48.800;9.086;2023-02-23T08:08:06;25.87;;;9.90;;
71937;SDS011;59810;48.800;9.086;2023-02-23T08:10:31;24.67;;;8.85;;
71937;SDS011;59810;48.800;9.086;2023-02-23T08:12:57;24.03;;;8.57;;
71937;SDS011;59810;48.800;9.086;2023-02-23T08:15:23;21.80;;;7.90;;
71937;SDS011;59810;48.800;9.086;2023-02-23T08:17:51;22.20;;;8.73;;
71937;SDS011;59810;48.800;9.086;2023-02-23T08:20:18;24.85;;;7.80;;
71937;SDS011;59810;48.800;9.086;2023-02-23T08:22:46;27.90;;;9.00;;
71937;SDS011;59810;48.800;9.086;2023-02-23T08:25:14;16.33;;;8.15;;
71937;SDS011;59810;48.800;9.086;2023-02-23T08:27:39;21.07;;;7.33;;
71937;SDS011;59810;48.800;9.086;2023-02-23T08:30:05;16.80;;;6.72;;
71937;SDS011;59810;48.800;9.086;2023-02-23T08:32:33;13.20;;;5.40;;
71937;SDS011;59810;48.800;9.086;2023-02-23T08:34:59;12.23;;;5.05;;
71937;SDS011;59810;48.800;9.086;2023-02-23T08:37:28;14.00;;;5.57;;
71937;SDS011;59810;48.800;9.086;2023-02-23T08:39:54;15.77;;;5.87;;
71937;SDS011;59810;48.800;9.086;2023-02-23T08:42:20;11.75;;;5.28;;
71937;SDS011;59810;48.800;9.086;2023-02-23T08:44:46;12.20;;;4.90;;
71937;SDS011;59810;48.800;9.086;2023-02-23T08:47:14;13.38;;;5.35;;
71937;SDS011;59810;48.800;9.086;2023-02-23T08:49:40;12.98;;;5.35;;
71937;SDS011;59810;48.800;9.086;2023-02-23T08:52:06;10.27;;;4.82;;
71937;SDS011;59810;48.800;9.086;2023-02-23T08:54:34;9.40;;;3.73;;
71937;SDS011;59810;48.800;9.086;2023-02-23T08:56:59;10.68;;;3.78;;
71937;SDS011;59810;48.800;9.086;2023-02-23T08:59:24;10.60;;;3.97;;
71937;SDS011;59810;48.800;9.086;2023-02-23T09:01:51;10.10;;;4.13;;
71937;SDS011;59810;48.800;9.086;2023-02-23T09:04:19;9.73;;;4.25;;
71937;SDS011;59810;48.800;9.086;2023-02-23T09:06:44;9.50;;;4.20;;
71937;SDS011;59810;48.800;9.086;2023-02-23T09:09:11;12.03;;;4.00;;
71937;SDS011;59810;48.800;9.086;2023-02-23T09:11:39;11.55;;;4.53;;
71937;SDS011;59810;48.800;9.086;2023-02-23T09:14:07;8.93;;;4.00;;
71937;SDS011;59810;48.800;9.086;2023-02-23T09:16:33;9.68;;;3.60;;
71937;SDS011;59810;48.800;9.086;2023-02-23T09:18:59;10.93;;;3.83;;
71937;SDS011;59810;48.800;9.086;2023-02-23T09:21:25;9.30;;;4.57;;
71937;SDS011;59810;48.800;9.086;2023-02-23T09:23:54;9.00;;;3.85;;
71937;SDS011;59810;48.800;9.086;2023-02-23T09:26:22;12.15;;;4.15;;
71937;SDS011;59810;48.800;9.086;2023-02-23T09:28:48;9.95;;;4.32;;
71937;SDS011;59810;48.800;9.086;2023-02-23T09:31:18;10.70;;;4.30;;
71937;SDS011;59810;48.800;9.086;2023-02-23T09:33:46;8.80;;;3.50;;
71937;SDS011;59810;48.800;9.086;2023-02-23T09:36:13;9.20;;;3.58;;
71937;SDS011;59810;48.800;9.086;2023-02-23T09:38:41;10.82;;;3.72;;
71937;SDS011;59810;48.800;9.086;2023-02-23T09:47:31;8.82;;;3.05;;
71937;SDS011;59810;48.800;9.086;2023-02-23T09:50:15;9.25;;;3.22;;
71937;SDS011;59810;48.800;9.086;2023-02-23T09:52:48;7.07;;;3.13;;
71937;SDS011;59810;48.800;9.086;2023-02-23T09:55:23;10.70;;;4.37;;
71937;SDS011;59810;48.800;9.086;2023-02-23T09:57:50;14.13;;;5.28;;
71937;SDS011;59810;48.800;9.086;2023-02-23T10:00:18;9.32;;;4.95;;
71937;SDS011;59810;48.800;9.086;2023-02-23T10:05:38;10.95;;;4.25;;
71937;SDS011;59810;48.800;9.086;2023-02-23T10:08:12;10.10;;;4.30;;
71937;SDS011;59810;48.800;9.086;2023-02-23T10:10:49;11.68;;;3.55;;
71937;SDS011;59810;48.800;9.086;2023-02-23T10:16:23;8.47;;;3.20;;
71937;SDS011;59810;48.800;9.086;2023-02-23T10:24:10;8.80;;;3.70;;
71937;SDS011;59810;48.800;9.086;2023-02-23T10:26:41;9.60;;;3.25;;
71937;SDS011;59810;48.800;9.086;2023-02-23T10:32:01;10.57;;;4.23;;
71937;SDS011;59810;48.800;9.086;2023-02-23T10:34:47;11.50;;;3.42;;
71937;SDS011;59810;48.800;9.086;2023-02-23T10:37:20;8.80;;;4.00;;
71937;SDS011;59810;48.800;9.086;2023-02-23T10:39:46;9.40;;;3.63;;
71937;SDS011;59810;48.800;9.086;2023-02-23T10:42:14;9.23;;;3.33;;
71937;SDS011;59810;48.800;9.086;2023-02-23T10:44:48;12.37;;;4.40;;
71937;SDS011;59810;48.800;9.086;2023-02-23T10:47:18;10.30;;;4.47;;
71937;SDS011;59810;48.800;9.086;2023-02-23T10:49:52;10.25;;;3.97;;
71937;SDS011;59810;48.800;9.086;2023-02-23T10:52:20;7.85;;;3.50;;
71937;SDS011;59810;48.800;9.086;2023-02-23T10:54:48;9.75;;;3.55;;
71937;SDS011;59810;48.800;9.086;2023-02-23T10:57:19;8.00;;;2.63;;
71937;SDS011;59810;48.800;9.086;2023-02-23T11:02:35;8.23;;;2.78;;
71937;SDS011;59810;48.800;9.086;2023-02-23T11:05:01;8.23;;;2.70;;
71937;SDS011;59810;48.800;9.086;2023-02-23T11:07:31;8.43;;;1.83;;
71937;SDS011;59810;48.800;9.086;2023-02-23T11:10:22;6.38;;;1.73;;
71937;SDS011;59810;48.800;9.086;2023-02-23T11:12:53;7.43;;;2.42;;
71937;SDS011;59810;48.800;9.086;2023-02-23T11:15:26;5.63;;;1.90;;
71937;SDS011;59810;48.800;9.086;2023-02-23T11:17:58;4.93;;;2.00;;
71937;SDS011;59810;48.800;9.086;2023-02-23T11:20:28;8.95;;;2.15;;
71937;SDS011;59810;48.800;9.086;2023-02-23T11:22:59;8.48;;;1.70;;
71937;SDS011;59810;48.800;9.086;2023-02-23T11:25:29;6.78;;;2.10;;
71937;SDS011;59810;48.800;9.086;2023-02-23T11:27:56;5.17;;;2.07;;
71937;SDS011;59810;48.800;9.086;2023-02-23T11:30:32;7.32;;;2.38;;
71937;SDS011;59810;48.800;9.086;2023-02-23T11:33:07;7.40;;;2.35;;
71937;SDS011;59810;48.800;9.086;2023-02-23T11:36:00;7.93;;;2.08;;
71937;SDS011;59810;48.800;9.086;2023-02-23T11:38:43;5.95;;;2.05;;
71937;SDS011;59810;48.800;9.086;2023-02-23T11:41:20;8.20;;;2.33;;
71937;SDS011;59810;48.800;9.086;2023-02-23T11:43:50;8.32;;;2.13;;
71937;SDS011;59810;48.800;9.086;2023-02-23T11:46:21;5.18;;;1.85;;
71937;SDS011;59810;48.800;9.086;2023-02-23T11:48:55;12.00;;;2.30;;
71937;SDS011;59810;48.800;9.086;2023-02-23T11:54:04;7.18;;;2.42;;
71937;SDS011;59810;48.800;9.086;2023-02-23T11:56:41;8.38;;;2.40;;
71937;SDS011;59810;48.800;9.086;2023-02-23T11:59:15;7.27;;;2.50;;
71937;SDS011;59810;48.800;9.086;2023-02-23T12:01:45;7.35;;;2.28;;
71937;SDS011;59810;48.800;9.086;2023-02-23T12:04:33;8.23;;;2.55;;
71937;SDS011;59810;48.800;9.086;2023-02-23T12:09:52;8.27;;;2.47;;
71937;SDS011;59810;48.800;9.086;2023-02-23T12:12:26;8.00;;;2.00;;
71937;SDS011;59810;48.800;9.086;2023-02-23T12:15:04;8.57;;;2.22;;
71937;SDS011;59810;48.800;9.086;2023-02-23T12:17:37;8.52;;;2.03;;
71937;SDS011;59810;48.800;9.086;2023-02-23T12:20:15;6.60;;;2.05;;
71937;SDS011;59810;48.800;9.086;2023-02-23T12:22:53;8.45;;;2.30;;
71937;SDS011;59810;48.800;9.086;2023-02-23T12:25:29;5.90;;;2.00;;
71937;SDS011;59810;48.800;9.086;2023-02-23T12:28:12;6.70;;;2.20;;
71937;SDS011;59810;48.800;9.086;2023-02-23T12:33:20;6.57;;;1.77;;
71937;SDS011;59810;48.800;9.086;2023-02-23T12:36:22;5.20;;;2.15;;
71937;SDS011;59810;48.800;9.086;2023-02-23T12:38:55;8.00;;;2.03;;
71937;SDS011;59810;48.800;9.086;2023-02-23T12:44:16;6.07;;;2.40;;
71937;SDS011;59810;48.800;9.086;2023-02-23T12:46:47;7.82;;;2.30;;
71937;SDS011;59810;48.800;9.086;2023-02-23T12:49:38;15.68;;;4.05;;
71937;SDS011;59810;48.800;9.086;2023-02-23T12:52:10;8.87;;;2.73;;
71937;SDS011;59810;48.800;9.086;2023-02-23T12:54:42;10.35;;;2.70;;
71937;SDS011;59810;48.800;9.086;2023-02-23T13:05:27;10.80;;;4.00;;
71937;SDS011;59810;48.800;9.086;2023-02-23T13:13:55;9.45;;;3.28;;
71937;SDS011;59810;48.800;9.086;2023-02-23T13:16:37;10.88;;;3.47;;
71937;SDS011;59810;48.800;9.086;2023-02-23T13:19:28;9.03;;;2.93;;
71937;SDS011;59810;48.800;9.086;2023-02-23T13:24:51;7.20;;;3.05;;
71937;SDS011;59810;48.800;9.086;2023-02-23T13:30:01;6.18;;;2.70;;
71937;SDS011;59810;48.800;9.086;2023-02-23T13:32:30;8.97;;;3.20;;
71937;SDS011;59810;48.800;9.086;2023-02-23T13:35:01;10.50;;;3.28;;
71937;SDS011;59810;48.800;9.086;2023-02-23T13:42:44;7.60;;;2.97;;
71937;SDS011;59810;48.800;9.086;2023-02-23T13:45:35;10.03;;;3.50;;
71937;SDS011;59810;48.800;9.086;2023-02-23T13:48:56;9.55;;;3.17;;
71937;SDS011;59810;48.800;9.086;2023-02-23T13:54:00;7.90;;;3.45;;
71937;SDS011;59810;48.800;9.086;2023-02-23T13:56:32;7.93;;;3.10;;
71937;SDS011;59810;48.800;9.086;2023-02-23T13:59:07;8.80;;;3.03;;
71937;SDS011;59810;48.800;9.086;2023-02-23T14:01:42;9.70;;;2.70;;
71937;SDS011;59810;48.800;9.086;2023-02-23T14:04:15;7.63;;;3.10;;
71937;SDS011;59810;48.800;9.086;2023-02-23T14:07:30;10.73;;;3.90;;
71937;SDS011;59810;48.800;9.086;2023-02-23T14:09:36;8.68;;;2.90;;
71937;SDS011;59810;48.800;9.086;2023-02-23T14:22:22;10.45;;;3.50;;
71937;SDS011;59810;48.800;9.086;2023-02-23T14:27:56;6.78;;;2.45;;
71937;SDS011;59810;48.800;9.086;2023-02-23T14:30:28;8.57;;;2.80;;
71937;SDS011;59810;48.800;9.086;2023-02-23T14:35:59;8.32;;;2.35;;
71937;SDS011;59810;48.800;9.086;2023-02-23T14:38:29;9.13;;;2.30;;
71937;SDS011;59810;48.800;9.086;2023-02-23T14:40:58;6.93;;;1.95;;
71937;SDS011;59810;48.800;9.086;2023-02-23T14:43:47;6.93;;;2.00;;
71937;SDS011;59810;48.800;9.086;2023-02-23T14:46:17;6.20;;;1.88;;
71937;SDS011;59810;48.800;9.086;2023-02-23T14:48:54;6.57;;;2.45;;
71937;SDS011;59810;48.800;9.086;2023-02-23T14:51:26;10.73;;;2.83;;
71937;SDS011;59810;48.800;9.086;2023-02-23T14:53:58;9.57;;;3.10;;
71937;SDS011;59810;48.800;9.086;2023-02-23T14:56:26;7.77;;;3.17;;
71937;SDS011;59810;48.800;9.086;2023-02-23T14:58:52;8.32;;;3.10;;
71937;SDS011;59810;48.800;9.086;2023-02-23T15:01:35;12.33;;;3.93;;
71937;SDS011;59810;48.800;9.086;2023-02-23T15:04:11;10.65;;;3.60;;
71937;SDS011;59810;48.800;9.086;2023-02-23T15:06:40;10.77;;;4.78;;
71937;SDS011;59810;48.800;9.086;2023-02-23T15:09:14;11.33;;;5.13;;
71937;SDS011;59810;48.800;9.086;2023-02-23T15:11:43;10.90;;;4.10;;
71937;SDS011;59810;48.800;9.086;2023-02-23T15:14:14;12.27;;;4.30;;
71937;SDS011;59810;48.800;9.086;2023-02-23T15:16:41;12.80;;;4.05;;
71937;SDS011;59810;48.800;9.086;2023-02-23T15:19:09;11.20;;;4.07;;
71937;SDS011;59810;48.800;9.086;2023-02-23T15:21:41;12.90;;;4.67;;
71937;SDS011;59810;48.800;9.086;2023-02-23T15:24:10;9.95;;;4.10;;
71937;SDS011;59810;48.800;9.086;2023-02-23T15:26:40;11.90;;;4.90;;
71937;SDS011;59810;48.800;9.086;2023-02-23T15:29:12;10.83;;;3.53;;
71937;SDS011;59810;48.800;9.086;2023-02-23T15:31:40;9.43;;;3.55;;
71937;SDS011;59810;48.800;9.086;2023-02-23T15:34:14;12.45;;;3.60;;
71937;SDS011;59810;48.800;9.086;2023-02-23T15:36:43;9.43;;;3.55;;
71937;SDS011;59810;48.800;9.086;2023-02-23T15:39:13;10.35;;;3.67;;
71937;SDS011;59810;48.800;9.086;2023-02-23T15:41:42;12.53;;;3.43;;
71937;SDS011;59810;48.800;9.086;2023-02-23T15:44:21;12.82;;;3.90;;
71937;SDS011;59810;48.800;9.086;2023-02-23T15:46:53;12.85;;;4.30;;
71937;SDS011;59810;48.800;9.086;2023-02-23T15:49:24;13.15;;;4.53;;
71937;SDS011;59810;48.800;9.086;2023-02-23T15:52:00;8.38;;;3.92;;
71937;SDS011;59810;48.800;9.086;2023-02-23T15:54:31;9.43;;;3.80;;
71937;SDS011;59810;48.800;9.086;2023-02-23T15:57:13;8.90;;;3.63;;
71937;SDS011;59810;48.800;9.086;2023-02-23T15:59:44;11.60;;;4.28;;
71937;SDS011;59810;48.800;9.086;2023-02-23T16:02:13;9.88;;;4.25;;
71937;SDS011;59810;48.800;9.086;2023-02-23T16:04:43;10.57;;;3.90;;
71937;SDS011;59810;48.800;9.086;2023-02-23T16:07:21;11.97;;;3.97;;
71937;SDS011;59810;48.800;9.086;2023-02-23T16:12:21;10.45;;;4.05;;
71937;SDS011;59810;48.800;9.086;2023-02-23T16:14:56;12.52;;;4.00;;
71937;SDS011;59810;48.800;9.086;2023-02-23T16:20:32;12.17;;;4.67;;
71937;SDS011;59810;48.800;9.086;2023-02-23T16:23:02;14.20;;;5.22;;
71937;SDS011;59810;48.800;9.086;2023-02-23T16:25:33;9.48;;;4.50;;
71937;SDS011;59810;48.800;9.086;2023-02-23T16:38:36;12.27;;;5.18;;
71937;SDS011;59810;48.800;9.086;2023-02-23T16:41:08;11.43;;;5.00;;
71937;SDS011;59810;48.800;9.086;2023-02-23T16:43:43;14.13;;;4.63;;
71937;SDS011;59810;48.800;9.086;2023-02-23T16:46:15;10.98;;;4.75;;
71937;SDS011;59810;48.800;9.086;2023-02-23T16:48:41;10.65;;;4.40;;
71937;SDS011;59810;48.800;9.086;2023-02-23T16:51:10;11.60;;;4.50;;
71937;SDS011;59810;48.800;9.086;2023-02-23T16:53:38;10.25;;;3.60;;
71937;SDS011;59810;48.800;9.086;2023-02-23T16:56:04;10.90;;;3.72;;
71937;SDS011;59810;48.800;9.086;2023-02-23T16:58:36;12.40;;;4.82;;
71937;SDS011;59810;48.800;9.086;2023-02-23T17:01:03;9.60;;;4.47;;
71937;SDS011;59810;48.800;9.086;2023-02-23T17:03:29;12.57;;;4.53;;
71937;SDS011;59810;48.800;9.086;2023-02-23T17:14:49;10.00;;;3.70;;
71937;SDS011;59810;48.800;9.086;2023-02-23T17:17:15;9.40;;;4.07;;
71937;SDS011;59810;48.800;9.086;2023-02-23T17:19:42;11.93;;;4.23;;
71937;SDS011;59810;48.800;9.086;2023-02-23T17:22:09;13.02;;;4.28;;
71937;SDS011;59810;48.800;9.086;2023-02-23T17:24:36;12.90;;;4.80;;
71937;SDS011;59810;48.800;9.086;2023-02-23T17:27:02;13.40;;;4.53;;